This is the latest recevied weather packets stored in our database for station/object WC4PEM-6. If no packets are shown the sender has not sent any weather packets the latest 10 day(s).
| Time | Temp. | Humidity | Pressure | Rain* | Wind** | Luminosity | Snow |
|---|---|---|---|---|---|---|---|
| 1788552071 | 32.22° C | 70% | 1013.1 hPa | 0 mm | - | - | - |
| 1788551770 | 32.78° C | 70% | 1013.1 hPa | 0 mm | - | - | - |
| 1788551471 | 32.78° C | 72% | 1013.2 hPa | 0 mm | - | - | - |
| 1788551170 | 32.22° C | 71% | 1013.5 hPa | 0 mm | - | - | - |
| 1788550871 | 32.22° C | 76% | 1013.4 hPa | 0 mm | - | - | - |
| 1788550571 | 31.67° C | 76% | 1013.4 hPa | 0 mm | - | - | - |
| 1788550271 | 31.11° C | 76% | 1013.4 hPa | 0 mm | - | - | - |
| 1788550064 | 30° C | 79% | 1013.7 hPa | 0 mm | - | - | - |
| 1788549971 | 30° C | 79% | 1013.7 hPa | 0 mm | - | - | - |
| 1788549671 | 29.44° C | 79% | 1013.6 hPa | 0 mm | - | - | - |
| 1788549371 | 28.89° C | 86% | 1014 hPa | 0 mm | - | - | - |
| 1788549071 | 27.78° C | 90% | 1014.3 hPa | 0 mm | - | - | - |
| 1788548771 | 27.22° C | 92% | 1014.1 hPa | 0 mm | - | - | - |
| 1788548471 | 26.11° C | 91% | 1014.3 hPa | 0 mm | - | - | - |
| 1788548171 | 26.11° C | 89% | 1014.5 hPa | 0 mm | - | - | - |
| 1788547871 | 26.11° C | 88% | 1014.4 hPa | 0 mm | - | - | - |
| 1788547571 | 26.11° C | 84% | 1014.3 hPa | 0 mm | - | - | - |
| 1788547271 | 27.22° C | 79% | 1014.4 hPa | 0 mm | - | - | - |
| 1788546971 | 28.33° C | 75% | 1014.9 hPa | 0 mm | - | - | - |
| 1788546671 | 31.11° C | 70% | 1014.6 hPa | 0 mm | - | - | - |
| 1788546371 | 32.78° C | 67% | 1014.4 hPa | 0 mm | - | - | - |
| 1788546071 | 33.33° C | 69% | 1014.5 hPa | 0 mm | - | - | - |
| 1788545771 | 32.78° C | 68% | 1014.6 hPa | 0 mm | - | - | - |
| 1788545471 | 33.33° C | 68% | 1014.4 hPa | 0 mm | - | - | - |
| 1788545171 | 33.33° C | 68% | 1014.5 hPa | 0 mm | - | - | - |
* Rain latest hour (hover to see other rain measurements)
** Current wind speed in m/s (hover to see current wind gust speed)